Palma Ceia, Florida
Current Conditions -  °F | °C
As of 5:53 PM on Saturday 25 Oct 2014 (Local Time) from KTPA Reporting Station
Clear Clear  
Wind Chill: 75°   Ceiling: Unl
Heat Index: 75°   Visibility: 10mi
Dew Point: 52°   Wind: 8mph
Humidity: 44%   Direction: 330°NNW
Pressure: 29.95"   Gusts: NA
Location:  27.9448°N, 82.5145°W
Report Text: KTPA 252153Z 33007KT 10SM CLR 24/11 A2995 RMK AO2 SLP141 T02390111
Loading
Personal Weather Stations






























Interactive Weather Map
Tropical Storm Tracking
New forecast layout! Learn more

10-Day Weather Forecast

Advertisements
Track Severe Weather on mobile